sensor_id;sensor_type;location;lat;lon;timestamp;temperature;humidity
62991;DHT22;49084;48.204;16.202;2022-08-11T00:00:06;14.60;99.90
62991;DHT22;49084;48.204;16.202;2022-08-11T00:02:39;14.50;99.90
62991;DHT22;49084;48.204;16.202;2022-08-11T00:05:14;14.50;99.90
62991;DHT22;49084;48.204;16.202;2022-08-11T00:10:14;14.50;99.90
62991;DHT22;49084;48.204;16.202;2022-08-11T00:12:42;14.50;99.90
62991;DHT22;49084;48.204;16.202;2022-08-11T00:15:08;14.40;99.90
62991;DHT22;49084;48.204;16.202;2022-08-11T00:17:35;14.40;99.90
62991;DHT22;49084;48.204;16.202;2022-08-11T00:20:07;14.40;99.90
62991;DHT22;49084;48.204;16.202;2022-08-11T00:22:37;14.30;99.90
62991;DHT22;49084;48.204;16.202;2022-08-11T00:25:17;14.30;99.90
62991;DHT22;49084;48.204;16.202;2022-08-11T00:27:44;14.20;99.90
62991;DHT22;49084;48.204;16.202;2022-08-11T00:30:12;14.20;99.90
62991;DHT22;49084;48.204;16.202;2022-08-11T00:32:40;14.20;99.90
62991;DHT22;49084;48.204;16.202;2022-08-11T00:35:11;14.20;99.90
62991;DHT22;49084;48.204;16.202;2022-08-11T00:37:37;14.10;99.90
62991;DHT22;49084;48.204;16.202;2022-08-11T00:40:06;14.10;99.90
62991;DHT22;49084;48.204;16.202;2022-08-11T00:43:07;14.10;99.90
62991;DHT22;49084;48.204;16.202;2022-08-11T00:45:44;14.00;99.90
62991;DHT22;49084;48.204;16.202;2022-08-11T00:48:28;14.00;99.90
62991;DHT22;49084;48.204;16.202;2022-08-11T01:05:37;13.80;99.90
62991;DHT22;49084;48.204;16.202;2022-08-11T01:45:58;13.40;99.90
62991;DHT22;49084;48.204;16.202;2022-08-11T01:51:30;13.30;99.90
62991;DHT22;49084;48.204;16.202;2022-08-11T01:54:14;13.30;99.90
62991;DHT22;49084;48.204;16.202;2022-08-11T01:57:19;13.20;99.90
62991;DHT22;49084;48.204;16.202;2022-08-11T01:59:59;13.20;99.90
62991;DHT22;49084;48.204;16.202;2022-08-11T02:02:36;13.20;99.90
62991;DHT22;49084;48.204;16.202;2022-08-11T02:05:35;13.10;99.90
62991;DHT22;49084;48.204;16.202;2022-08-11T02:08:14;13.00;99.90
62991;DHT22;49084;48.204;16.202;2022-08-11T02:23:16;12.90;99.90
62991;DHT22;49084;48.204;16.202;2022-08-11T02:37:26;12.70;99.90
62991;DHT22;49084;48.204;16.202;2022-08-11T02:40:21;12.70;99.90
62991;DHT22;49084;48.204;16.202;2022-08-11T02:48:30;12.60;99.90
62991;DHT22;49084;48.204;16.202;2022-08-11T02:51:38;12.70;99.90
62991;DHT22;49084;48.204;16.202;2022-08-11T02:54:21;12.70;99.90
62991;DHT22;49084;48.204;16.202;2022-08-11T03:16:59;12.50;99.90
62991;DHT22;49084;48.204;16.202;2022-08-11T03:25:52;12.40;99.90
62991;DHT22;49084;48.204;16.202;2022-08-11T03:34:00;12.40;99.90
62991;DHT22;49084;48.204;16.202;2022-08-11T03:39:21;12.30;99.90
62991;DHT22;49084;48.204;16.202;2022-08-11T03:42:15;12.30;99.90
62991;DHT22;49084;48.204;16.202;2022-08-11T03:44:54;12.30;99.90
62991;DHT22;49084;48.204;16.202;2022-08-11T03:47:44;12.20;99.90
62991;DHT22;49084;48.204;16.202;2022-08-11T04:01:57;12.20;99.90
62991;DHT22;49084;48.204;16.202;2022-08-11T04:13:08;12.20;99.90
62991;DHT22;49084;48.204;16.202;2022-08-11T04:38:15;12.40;99.90
62991;DHT22;49084;48.204;16.202;2022-08-11T04:49:27;12.60;99.90
62991;DHT22;49084;48.204;16.202;2022-08-11T05:01:46;12.80;99.90
62991;DHT22;49084;48.204;16.202;2022-08-11T05:13:33;13.10;99.90
62991;DHT22;49084;48.204;16.202;2022-08-11T05:16:22;13.10;99.90
62991;DHT22;49084;48.204;16.202;2022-08-11T05:19:18;13.20;99.90
62991;DHT22;49084;48.204;16.202;2022-08-11T05:22:02;13.40;99.90
62991;DHT22;49084;48.204;16.202;2022-08-11T05:25:11;13.50;99.90
62991;DHT22;49084;48.204;16.202;2022-08-11T05:28:04;13.60;99.90
62991;DHT22;49084;48.204;16.202;2022-08-11T05:30:53;13.80;99.90
62991;DHT22;49084;48.204;16.202;2022-08-11T05:33:48;14.00;99.90
62991;DHT22;49084;48.204;16.202;2022-08-11T05:36:49;14.20;99.90
62991;DHT22;49084;48.204;16.202;2022-08-11T05:39:23;14.40;99.90
62991;DHT22;49084;48.204;16.202;2022-08-11T05:42:09;14.60;99.90
62991;DHT22;49084;48.204;16.202;2022-08-11T05:44:58;14.80;99.90
62991;DHT22;49084;48.204;16.202;2022-08-11T05:47:47;15.10;99.90
62991;DHT22;49084;48.204;16.202;2022-08-11T05:50:32;15.20;99.90
62991;DHT22;49084;48.204;16.202;2022-08-11T05:53:17;15.40;99.90
62991;DHT22;49084;48.204;16.202;2022-08-11T05:56:04;15.50;99.90
62991;DHT22;49084;48.204;16.202;2022-08-11T05:58:49;15.80;99.90
62991;DHT22;49084;48.204;16.202;2022-08-11T06:01:24;16.00;99.90
62991;DHT22;49084;48.204;16.202;2022-08-11T06:03:52;16.20;99.90
62991;DHT22;49084;48.204;16.202;2022-08-11T06:06:37;16.50;99.90
62991;DHT22;49084;48.204;16.202;2022-08-11T06:09:06;17.00;99.90
62991;DHT22;49084;48.204;16.202;2022-08-11T06:11:37;17.40;99.90
62991;DHT22;49084;48.204;16.202;2022-08-11T06:14:05;17.80;99.90
62991;DHT22;49084;48.204;16.202;2022-08-11T06:16:32;17.50;99.90
62991;DHT22;49084;48.204;16.202;2022-08-11T06:18:58;18.70;99.90
62991;DHT22;49084;48.204;16.202;2022-08-11T06:21:25;19.00;99.90
62991;DHT22;49084;48.204;16.202;2022-08-11T06:23:53;19.10;99.90
62991;DHT22;49084;48.204;16.202;2022-08-11T06:26:19;19.30;99.90
62991;DHT22;49084;48.204;16.202;2022-08-11T06:28:47;19.50;99.90
62991;DHT22;49084;48.204;16.202;2022-08-11T06:31:18;19.80;99.90
62991;DHT22;49084;48.204;16.202;2022-08-11T06:36:54;20.30;99.90
62991;DHT22;49084;48.204;16.202;2022-08-11T06:39:51;20.70;99.90
62991;DHT22;49084;48.204;16.202;2022-08-11T06:45:14;21.40;97.70
62991;DHT22;49084;48.204;16.202;2022-08-11T06:47:43;21.50;96.50
62991;DHT22;49084;48.204;16.202;2022-08-11T06:50:16;21.70;96.10
62991;DHT22;49084;48.204;16.202;2022-08-11T06:53:04;22.00;95.50
62991;DHT22;49084;48.204;16.202;2022-08-11T06:55:30;22.20;94.10
62991;DHT22;49084;48.204;16.202;2022-08-11T06:58:19;22.30;93.40
62991;DHT22;49084;48.204;16.202;2022-08-11T07:01:11;22.60;93.20
62991;DHT22;49084;48.204;16.202;2022-08-11T07:03:43;22.80;91.90
62991;DHT22;49084;48.204;16.202;2022-08-11T07:12:53;23.20;88.50
62991;DHT22;49084;48.204;16.202;2022-08-11T07:15:39;23.30;86.00
62991;DHT22;49084;48.204;16.202;2022-08-11T07:18:31;23.50;86.40
62991;DHT22;49084;48.204;16.202;2022-08-11T07:21:43;23.90;84.30
62991;DHT22;49084;48.204;16.202;2022-08-11T07:24:33;24.40;81.50
62991;DHT22;49084;48.204;16.202;2022-08-11T07:27:19;24.80;78.60
62991;DHT22;49084;48.204;16.202;2022-08-11T07:30:25;25.20;75.50
62991;DHT22;49084;48.204;16.202;2022-08-11T07:32:56;25.20;74.50
62991;DHT22;49084;48.204;16.202;2022-08-11T07:35:44;25.30;72.70
62991;DHT22;49084;48.204;16.202;2022-08-11T07:38:17;25.80;71.70
62991;DHT22;49084;48.204;16.202;2022-08-11T07:40:45;26.00;68.90
62991;DHT22;49084;48.204;16.202;2022-08-11T07:43:12;25.90;69.30
62991;DHT22;49084;48.204;16.202;2022-08-11T07:45:44;26.00;68.60
62991;DHT22;49084;48.204;16.202;2022-08-11T07:48:29;25.90;66.50
62991;DHT22;49084;48.204;16.202;2022-08-11T07:51:18;26.00;66.10
62991;DHT22;49084;48.204;16.202;2022-08-11T07:54:04;25.90;65.90
62991;DHT22;49084;48.204;16.202;2022-08-11T07:56:34;26.30;65.50
62991;DHT22;49084;48.204;16.202;2022-08-11T07:59:00;26.50;62.90
62991;DHT22;49084;48.204;16.202;2022-08-11T08:01:46;26.60;61.80
62991;DHT22;49084;48.204;16.202;2022-08-11T08:04:31;26.70;61.70
62991;DHT22;49084;48.204;16.202;2022-08-11T08:07:19;26.90;61.20
62991;DHT22;49084;48.204;16.202;2022-08-11T08:10:06;27.30;59.20
62991;DHT22;49084;48.204;16.202;2022-08-11T08:12:53;27.60;58.30
62991;DHT22;49084;48.204;16.202;2022-08-11T08:15:38;27.60;57.70
62991;DHT22;49084;48.204;16.202;2022-08-11T08:18:24;27.70;58.40
62991;DHT22;49084;48.204;16.202;2022-08-11T08:20:51;27.90;56.80
62991;DHT22;49084;48.204;16.202;2022-08-11T08:23:18;28.00;56.40
62991;DHT22;49084;48.204;16.202;2022-08-11T08:25:58;28.10;55.70
62991;DHT22;49084;48.204;16.202;2022-08-11T08:28:26;27.90;55.60
62991;DHT22;49084;48.204;16.202;2022-08-11T08:30:53;27.20;54.40
62991;DHT22;49084;48.204;16.202;2022-08-11T08:33:21;27.50;54.10
62991;DHT22;49084;48.204;16.202;2022-08-11T08:35:51;27.80;51.80
62991;DHT22;49084;48.204;16.202;2022-08-11T08:38:42;28.20;51.90
62991;DHT22;49084;48.204;16.202;2022-08-11T08:41:12;28.90;50.10
62991;DHT22;49084;48.204;16.202;2022-08-11T08:43:39;29.30;48.50
62991;DHT22;49084;48.204;16.202;2022-08-11T08:46:09;29.70;47.50
62991;DHT22;49084;48.204;16.202;2022-08-11T08:48:36;29.40;47.20
62991;DHT22;49084;48.204;16.202;2022-08-11T08:51:10;29.40;48.20
62991;DHT22;49084;48.204;16.202;2022-08-11T08:54:03;30.00;47.40
62991;DHT22;49084;48.204;16.202;2022-08-11T08:56:29;30.40;45.90
62991;DHT22;49084;48.204;16.202;2022-08-11T08:58:58;30.90;44.70
62991;DHT22;49084;48.204;16.202;2022-08-11T09:01:42;30.90;43.70
62991;DHT22;49084;48.204;16.202;2022-08-11T09:04:08;31.10;44.00
62991;DHT22;49084;48.204;16.202;2022-08-11T09:06:39;30.80;44.20
62991;DHT22;49084;48.204;16.202;2022-08-11T09:09:07;30.70;43.60
62991;DHT22;49084;48.204;16.202;2022-08-11T09:11:34;30.60;43.30
62991;DHT22;49084;48.204;16.202;2022-08-11T09:14:24;30.90;43.50
62991;DHT22;49084;48.204;16.202;2022-08-11T09:17:11;31.00;43.20
62991;DHT22;49084;48.204;16.202;2022-08-11T09:19:38;31.50;42.20
62991;DHT22;49084;48.204;16.202;2022-08-11T09:22:04;31.90;40.40
62991;DHT22;49084;48.204;16.202;2022-08-11T09:24:49;32.30;38.80
62991;DHT22;49084;48.204;16.202;2022-08-11T09:27:34;32.10;40.20
62991;DHT22;49084;48.204;16.202;2022-08-11T09:30:03;32.30;39.30
62991;DHT22;49084;48.204;16.202;2022-08-11T09:32:29;32.10;36.90
62991;DHT22;49084;48.204;16.202;2022-08-11T09:34:56;32.10;37.50
62991;DHT22;49084;48.204;16.202;2022-08-11T09:37:23;32.30;38.10
62991;DHT22;49084;48.204;16.202;2022-08-11T09:40:10;32.10;38.30
62991;DHT22;49084;48.204;16.202;2022-08-11T09:42:55;32.30;38.40
62991;DHT22;49084;48.204;16.202;2022-08-11T09:45:40;32.30;37.80
62991;DHT22;49084;48.204;16.202;2022-08-11T09:48:08;32.30;38.10
62991;DHT22;49084;48.204;16.202;2022-08-11T09:50:35;32.40;38.10
62991;DHT22;49084;48.204;16.202;2022-08-11T09:53:04;32.50;37.40
62991;DHT22;49084;48.204;16.202;2022-08-11T09:55:32;32.80;36.80
62991;DHT22;49084;48.204;16.202;2022-08-11T09:57:59;32.30;36.90
62991;DHT22;49084;48.204;16.202;2022-08-11T10:00:46;31.80;37.80
62991;DHT22;49084;48.204;16.202;2022-08-11T10:03:16;31.90;38.50
62991;DHT22;49084;48.204;16.202;2022-08-11T10:05:53;32.90;37.90
62991;DHT22;49084;48.204;16.202;2022-08-11T10:08:41;32.00;37.80
62991;DHT22;49084;48.204;16.202;2022-08-11T10:11:13;31.20;39.30
62991;DHT22;49084;48.204;16.202;2022-08-11T10:13:44;30.20;40.20
62991;DHT22;49084;48.204;16.202;2022-08-11T10:16:31;29.30;41.90
62991;DHT22;49084;48.204;16.202;2022-08-11T10:19:01;29.00;43.10
62991;DHT22;49084;48.204;16.202;2022-08-11T10:21:40;28.70;42.70
62991;DHT22;49084;48.204;16.202;2022-08-11T10:24:06;28.50;42.40
62991;DHT22;49084;48.204;16.202;2022-08-11T10:26:53;27.90;43.30
62991;DHT22;49084;48.204;16.202;2022-08-11T10:29:24;27.50;44.20
62991;DHT22;49084;48.204;16.202;2022-08-11T10:32:09;27.40;45.30
62991;DHT22;49084;48.204;16.202;2022-08-11T10:34:55;27.40;44.80
62991;DHT22;49084;48.204;16.202;2022-08-11T10:37:23;27.90;44.00
62991;DHT22;49084;48.204;16.202;2022-08-11T10:39:51;28.20;43.40
62991;DHT22;49084;48.204;16.202;2022-08-11T10:42:17;28.00;43.20
62991;DHT22;49084;48.204;16.202;2022-08-11T10:45:07;27.90;43.50
62991;DHT22;49084;48.204;16.202;2022-08-11T10:47:54;29.10;41.80
62991;DHT22;49084;48.204;16.202;2022-08-11T10:50:20;30.40;39.60
62991;DHT22;49084;48.204;16.202;2022-08-11T10:53:06;31.40;38.10
62991;DHT22;49084;48.204;16.202;2022-08-11T10:55:51;31.20;36.30
62991;DHT22;49084;48.204;16.202;2022-08-11T10:58:39;30.90;37.30
62991;DHT22;49084;48.204;16.202;2022-08-11T11:01:24;31.10;37.40
62991;DHT22;49084;48.204;16.202;2022-08-11T11:03:53;31.70;36.90
62991;DHT22;49084;48.204;16.202;2022-08-11T11:06:26;31.30;36.70
62991;DHT22;49084;48.204;16.202;2022-08-11T11:09:05;31.00;37.90
62991;DHT22;49084;48.204;16.202;2022-08-11T11:11:43;31.90;37.50
62991;DHT22;49084;48.204;16.202;2022-08-11T11:14:31;31.80;36.90
62991;DHT22;49084;48.204;16.202;2022-08-11T11:17:34;30.60;38.30
62991;DHT22;49084;48.204;16.202;2022-08-11T11:20:40;29.20;39.50
62991;DHT22;49084;48.204;16.202;2022-08-11T11:31:49;27.30;42.90
62991;DHT22;49084;48.204;16.202;2022-08-11T11:37:04;28.70;41.60
62991;DHT22;49084;48.204;16.202;2022-08-11T11:39:32;30.10;39.60
62991;DHT22;49084;48.204;16.202;2022-08-11T11:42:05;31.20;38.10
62991;DHT22;49084;48.204;16.202;2022-08-11T11:44:33;32.10;36.40
62991;DHT22;49084;48.204;16.202;2022-08-11T11:47:00;32.70;36.00
62991;DHT22;49084;48.204;16.202;2022-08-11T11:49:27;33.10;35.70
62991;DHT22;49084;48.204;16.202;2022-08-11T11:51:56;33.50;35.10
62991;DHT22;49084;48.204;16.202;2022-08-11T11:54:27;33.60;34.60
62991;DHT22;49084;48.204;16.202;2022-08-11T11:56:55;32.70;35.40
62991;DHT22;49084;48.204;16.202;2022-08-11T11:59:24;31.70;35.90
62991;DHT22;49084;48.204;16.202;2022-08-11T12:02:12;31.00;36.40
62991;DHT22;49084;48.204;16.202;2022-08-11T12:04:44;30.40;37.40
62991;DHT22;49084;48.204;16.202;2022-08-11T12:07:13;29.60;38.10
62991;DHT22;49084;48.204;16.202;2022-08-11T12:09:57;29.20;38.60
62991;DHT22;49084;48.204;16.202;2022-08-11T12:12:24;28.80;38.90
62991;DHT22;49084;48.204;16.202;2022-08-11T12:15:09;28.40;39.60
62991;DHT22;49084;48.204;16.202;2022-08-11T12:17:35;28.30;39.70
62991;DHT22;49084;48.204;16.202;2022-08-11T12:20:03;28.20;38.70
62991;DHT22;49084;48.204;16.202;2022-08-11T12:22:29;28.80;38.60
62991;DHT22;49084;48.204;16.202;2022-08-11T12:25:14;29.80;37.50
62991;DHT22;49084;48.204;16.202;2022-08-11T12:27:58;30.80;36.00
62991;DHT22;49084;48.204;16.202;2022-08-11T12:30:25;31.80;35.10
62991;DHT22;49084;48.204;16.202;2022-08-11T12:32:51;32.60;33.40
62991;DHT22;49084;48.204;16.202;2022-08-11T12:35:17;33.00;33.50
62991;DHT22;49084;48.204;16.202;2022-08-11T12:37:51;33.20;33.20
62991;DHT22;49084;48.204;16.202;2022-08-11T12:40:26;33.40;33.50
62991;DHT22;49084;48.204;16.202;2022-08-11T12:43:16;34.00;32.50
62991;DHT22;49084;48.204;16.202;2022-08-11T12:46:04;34.10;31.80
62991;DHT22;49084;48.204;16.202;2022-08-11T12:48:34;33.90;32.20
62991;DHT22;49084;48.204;16.202;2022-08-11T12:51:23;33.90;32.10
62991;DHT22;49084;48.204;16.202;2022-08-11T12:57:06;34.80;31.70
62991;DHT22;49084;48.204;16.202;2022-08-11T12:59:53;34.30;31.60
62991;DHT22;49084;48.204;16.202;2022-08-11T13:02:39;34.50;31.30
62991;DHT22;49084;48.204;16.202;2022-08-11T13:05:24;34.50;31.20
62991;DHT22;49084;48.204;16.202;2022-08-11T13:07:50;35.00;29.60
62991;DHT22;49084;48.204;16.202;2022-08-11T13:10:18;35.90;29.70
62991;DHT22;49084;48.204;16.202;2022-08-11T13:13:05;36.20;29.40
62991;DHT22;49084;48.204;16.202;2022-08-11T13:15:32;36.00;29.40
62991;DHT22;49084;48.204;16.202;2022-08-11T13:18:01;35.60;30.20
62991;DHT22;49084;48.204;16.202;2022-08-11T13:20:27;35.20;30.40
62991;DHT22;49084;48.204;16.202;2022-08-11T13:22:56;34.50;30.80
62991;DHT22;49084;48.204;16.202;2022-08-11T13:25:26;34.20;31.00
62991;DHT22;49084;48.204;16.202;2022-08-11T13:27:54;34.50;31.20
62991;DHT22;49084;48.204;16.202;2022-08-11T13:30:22;34.80;31.30
62991;DHT22;49084;48.204;16.202;2022-08-11T13:33:07;34.30;30.90
62991;DHT22;49084;48.204;16.202;2022-08-11T13:35:34;33.90;31.30
62991;DHT22;49084;48.204;16.202;2022-08-11T13:38:01;33.90;31.70
62991;DHT22;49084;48.204;16.202;2022-08-11T13:40:28;33.70;31.40
62991;DHT22;49084;48.204;16.202;2022-08-11T13:42:55;33.40;31.60
62991;DHT22;49084;48.204;16.202;2022-08-11T13:45:23;33.10;31.70
62991;DHT22;49084;48.204;16.202;2022-08-11T13:47:53;33.10;31.80
62991;DHT22;49084;48.204;16.202;2022-08-11T13:50:19;33.20;31.90
62991;DHT22;49084;48.204;16.202;2022-08-11T13:52:48;33.10;32.30
62991;DHT22;49084;48.204;16.202;2022-08-11T13:55:15;32.60;31.50
62991;DHT22;49084;48.204;16.202;2022-08-11T13:57:51;31.80;32.80
62991;DHT22;49084;48.204;16.202;2022-08-11T14:00:17;31.80;33.60
62991;DHT22;49084;48.204;16.202;2022-08-11T14:02:44;32.20;32.80
62991;DHT22;49084;48.204;16.202;2022-08-11T14:05:17;32.40;32.70
62991;DHT22;49084;48.204;16.202;2022-08-11T14:07:50;32.80;32.90
62991;DHT22;49084;48.204;16.202;2022-08-11T14:10:19;32.80;32.60
62991;DHT22;49084;48.204;16.202;2022-08-11T14:12:59;32.30;32.80
62991;DHT22;49084;48.204;16.202;2022-08-11T14:15:45;31.60;33.90
62991;DHT22;49084;48.204;16.202;2022-08-11T14:20:41;30.90;34.50
62991;DHT22;49084;48.204;16.202;2022-08-11T14:23:34;30.70;34.80
62991;DHT22;49084;48.204;16.202;2022-08-11T14:26:02;30.30;35.40
62991;DHT22;49084;48.204;16.202;2022-08-11T14:28:46;29.70;35.30
62991;DHT22;49084;48.204;16.202;2022-08-11T14:31:14;29.50;36.60
62991;DHT22;49084;48.204;16.202;2022-08-11T14:33:40;29.40;36.60
62991;DHT22;49084;48.204;16.202;2022-08-11T14:36:07;29.30;36.50
62991;DHT22;49084;48.204;16.202;2022-08-11T14:38:34;29.20;37.20
62991;DHT22;49084;48.204;16.202;2022-08-11T14:41:01;29.10;36.80
62991;DHT22;49084;48.204;16.202;2022-08-11T14:43:46;29.10;37.40
62991;DHT22;49084;48.204;16.202;2022-08-11T14:46:32;29.00;37.40
62991;DHT22;49084;48.204;16.202;2022-08-11T14:49:18;28.70;38.20
62991;DHT22;49084;48.204;16.202;2022-08-11T14:51:45;28.70;38.60
62991;DHT22;49084;48.204;16.202;2022-08-11T14:54:13;28.40;38.30
62991;DHT22;49084;48.204;16.202;2022-08-11T14:56:58;28.20;39.70
62991;DHT22;49084;48.204;16.202;2022-08-11T14:59:25;28.10;40.70
62991;DHT22;49084;48.204;16.202;2022-08-11T15:01:51;28.00;40.40
62991;DHT22;49084;48.204;16.202;2022-08-11T15:04:35;28.00;40.40
62991;DHT22;49084;48.204;16.202;2022-08-11T15:07:03;27.90;43.10
62991;DHT22;49084;48.204;16.202;2022-08-11T15:09:29;27.70;44.20
62991;DHT22;49084;48.204;16.202;2022-08-11T15:11:55;27.60;41.10
62991;DHT22;49084;48.204;16.202;2022-08-11T15:14:33;27.60;41.70
62991;DHT22;49084;48.204;16.202;2022-08-11T15:17:18;27.50;42.30
62991;DHT22;49084;48.204;16.202;2022-08-11T15:19:45;27.30;41.70
62991;DHT22;49084;48.204;16.202;2022-08-11T15:22:30;27.20;42.80
62991;DHT22;49084;48.204;16.202;2022-08-11T15:25:15;27.20;42.30
62991;DHT22;49084;48.204;16.202;2022-08-11T15:27:42;27.20;43.00
62991;DHT22;49084;48.204;16.202;2022-08-11T15:30:29;27.20;42.60
62991;DHT22;49084;48.204;16.202;2022-08-11T15:33:14;27.10;43.30
62991;DHT22;49084;48.204;16.202;2022-08-11T15:36:03;27.00;41.60
62991;DHT22;49084;48.204;16.202;2022-08-11T15:38:54;26.90;41.60
62991;DHT22;49084;48.204;16.202;2022-08-11T15:41:29;26.70;42.50
62991;DHT22;49084;48.204;16.202;2022-08-11T15:44:14;26.60;42.80
62991;DHT22;49084;48.204;16.202;2022-08-11T15:47:02;26.50;43.10
62991;DHT22;49084;48.204;16.202;2022-08-11T15:49:31;26.40;43.50
62991;DHT22;49084;48.204;16.202;2022-08-11T15:52:08;26.30;44.20
62991;DHT22;49084;48.204;16.202;2022-08-11T15:54:39;26.30;44.20
62991;DHT22;49084;48.204;16.202;2022-08-11T15:57:07;26.30;44.40
62991;DHT22;49084;48.204;16.202;2022-08-11T15:59:35;26.20;44.50
62991;DHT22;49084;48.204;16.202;2022-08-11T16:02:22;26.10;44.90
62991;DHT22;49084;48.204;16.202;2022-08-11T16:05:02;26.10;44.70
62991;DHT22;49084;48.204;16.202;2022-08-11T16:07:32;26.00;45.00
62991;DHT22;49084;48.204;16.202;2022-08-11T16:10:25;26.00;45.20
62991;DHT22;49084;48.204;16.202;2022-08-11T16:13:01;25.90;45.60
62991;DHT22;49084;48.204;16.202;2022-08-11T16:15:53;25.80;45.50
62991;DHT22;49084;48.204;16.202;2022-08-11T16:21:29;25.50;45.40
62991;DHT22;49084;48.204;16.202;2022-08-11T16:23:58;25.40;45.80
62991;DHT22;49084;48.204;16.202;2022-08-11T16:26:26;25.40;46.00
62991;DHT22;49084;48.204;16.202;2022-08-11T16:28:54;25.40;45.80
62991;DHT22;49084;48.204;16.202;2022-08-11T16:31:23;25.30;46.00
62991;DHT22;49084;48.204;16.202;2022-08-11T16:33:51;25.30;46.00
62991;DHT22;49084;48.204;16.202;2022-08-11T16:36:23;25.30;46.80
62991;DHT22;49084;48.204;16.202;2022-08-11T16:39:09;25.30;48.80
62991;DHT22;49084;48.204;16.202;2022-08-11T16:41:38;25.20;46.30
62991;DHT22;49084;48.204;16.202;2022-08-11T16:44:24;25.20;47.20
62991;DHT22;49084;48.204;16.202;2022-08-11T16:47:12;25.20;46.50
62991;DHT22;49084;48.204;16.202;2022-08-11T16:49:46;25.10;46.80
62991;DHT22;49084;48.204;16.202;2022-08-11T16:52:14;25.00;47.00
62991;DHT22;49084;48.204;16.202;2022-08-11T16:54:42;24.90;47.10
62991;DHT22;49084;48.204;16.202;2022-08-11T16:57:11;24.80;47.20
62991;DHT22;49084;48.204;16.202;2022-08-11T16:59:59;24.70;47.30
62991;DHT22;49084;48.204;16.202;2022-08-11T17:02:36;24.60;47.50
62991;DHT22;49084;48.204;16.202;2022-08-11T17:05:23;24.50;47.90
62991;DHT22;49084;48.204;16.202;2022-08-11T17:08:09;24.40;48.00
62991;DHT22;49084;48.204;16.202;2022-08-11T17:11:11;24.40;48.30
62991;DHT22;49084;48.204;16.202;2022-08-11T17:13:58;24.30;48.50
62991;DHT22;49084;48.204;16.202;2022-08-11T17:16:36;24.30;48.60
62991;DHT22;49084;48.204;16.202;2022-08-11T17:19:12;24.30;49.30
62991;DHT22;49084;48.204;16.202;2022-08-11T17:21:45;24.20;49.90
62991;DHT22;49084;48.204;16.202;2022-08-11T17:24:32;24.20;50.10
62991;DHT22;49084;48.204;16.202;2022-08-11T17:26:59;24.10;50.10
62991;DHT22;49084;48.204;16.202;2022-08-11T17:32:04;23.80;48.40
62991;DHT22;49084;48.204;16.202;2022-08-11T17:34:53;23.80;48.50
62991;DHT22;49084;48.204;16.202;2022-08-11T17:37:39;23.70;48.20
62991;DHT22;49084;48.204;16.202;2022-08-11T17:40:08;23.70;49.30
62991;DHT22;49084;48.204;16.202;2022-08-11T17:42:35;23.50;49.90
62991;DHT22;49084;48.204;16.202;2022-08-11T17:45:22;23.40;50.70
62991;DHT22;49084;48.204;16.202;2022-08-11T17:48:08;23.30;52.10
62991;DHT22;49084;48.204;16.202;2022-08-11T17:50:52;23.10;52.90
62991;DHT22;49084;48.204;16.202;2022-08-11T17:53:18;22.90;54.10
62991;DHT22;49084;48.204;16.202;2022-08-11T17:56:04;22.80;54.20
62991;DHT22;49084;48.204;16.202;2022-08-11T17:58:49;22.60;54.90
62991;DHT22;49084;48.204;16.202;2022-08-11T18:01:37;22.40;55.50
62991;DHT22;49084;48.204;16.202;2022-08-11T18:04:05;22.20;56.40
62991;DHT22;49084;48.204;16.202;2022-08-11T18:06:32;22.10;56.50
62991;DHT22;49084;48.204;16.202;2022-08-11T18:08:59;21.90;57.00
62991;DHT22;49084;48.204;16.202;2022-08-11T18:11:45;21.80;57.40
62991;DHT22;49084;48.204;16.202;2022-08-11T18:14:31;21.60;58.10
62991;DHT22;49084;48.204;16.202;2022-08-11T18:17:16;21.50;58.70
62991;DHT22;49084;48.204;16.202;2022-08-11T18:20:01;21.40;58.50
62991;DHT22;49084;48.204;16.202;2022-08-11T18:22:46;21.20;58.90
62991;DHT22;49084;48.204;16.202;2022-08-11T18:25:38;21.20;59.60
62991;DHT22;49084;48.204;16.202;2022-08-11T18:28:28;21.00;59.50
62991;DHT22;49084;48.204;16.202;2022-08-11T18:31:14;20.90;61.10
62991;DHT22;49084;48.204;16.202;2022-08-11T18:34:03;20.70;61.60
62991;DHT22;49084;48.204;16.202;2022-08-11T18:36:55;20.60;61.50
62991;DHT22;49084;48.204;16.202;2022-08-11T18:39:43;20.50;61.90
62991;DHT22;49084;48.204;16.202;2022-08-11T18:42:31;20.30;62.20
62991;DHT22;49084;48.204;16.202;2022-08-11T18:45:16;20.20;63.10
62991;DHT22;49084;48.204;16.202;2022-08-11T18:48:07;20.10;62.70
62991;DHT22;49084;48.204;16.202;2022-08-11T18:50:54;20.10;62.90
62991;DHT22;49084;48.204;16.202;2022-08-11T18:53:41;20.10;63.10
62991;DHT22;49084;48.204;16.202;2022-08-11T18:56:29;20.00;64.20
62991;DHT22;49084;48.204;16.202;2022-08-11T18:59:16;19.80;64.90
62991;DHT22;49084;48.204;16.202;2022-08-11T19:02:01;19.70;65.80
62991;DHT22;49084;48.204;16.202;2022-08-11T19:04:47;19.60;66.00
62991;DHT22;49084;48.204;16.202;2022-08-11T19:07:33;19.40;66.50
62991;DHT22;49084;48.204;16.202;2022-08-11T19:10:18;19.30;67.40
62991;DHT22;49084;48.204;16.202;2022-08-11T19:13:08;19.20;68.50
62991;DHT22;49084;48.204;16.202;2022-08-11T19:15:54;19.10;69.50
62991;DHT22;49084;48.204;16.202;2022-08-11T19:18:39;19.10;69.80
62991;DHT22;49084;48.204;16.202;2022-08-11T19:21:26;19.10;70.40
62991;DHT22;49084;48.204;16.202;2022-08-11T19:24:12;19.00;71.20
62991;DHT22;49084;48.204;16.202;2022-08-11T19:26:57;18.90;71.80
62991;DHT22;49084;48.204;16.202;2022-08-11T19:29:42;18.90;72.50
62991;DHT22;49084;48.204;16.202;2022-08-11T19:32:28;18.80;73.70
62991;DHT22;49084;48.204;16.202;2022-08-11T19:35:13;18.70;74.80
62991;DHT22;49084;48.204;16.202;2022-08-11T19:37:59;18.60;75.70
62991;DHT22;49084;48.204;16.202;2022-08-11T19:40:44;18.50;77.50
62991;DHT22;49084;48.204;16.202;2022-08-11T19:43:30;18.50;78.90
62991;DHT22;49084;48.204;16.202;2022-08-11T19:46:19;18.40;81.00
62991;DHT22;49084;48.204;16.202;2022-08-11T19:49:05;18.30;83.20
62991;DHT22;49084;48.204;16.202;2022-08-11T19:51:51;18.20;85.80
62991;DHT22;49084;48.204;16.202;2022-08-11T19:54:35;18.10;88.40
62991;DHT22;49084;48.204;16.202;2022-08-11T19:57:22;18.10;90.20
62991;DHT22;49084;48.204;16.202;2022-08-11T20:00:10;18.00;91.80
62991;DHT22;49084;48.204;16.202;2022-08-11T20:02:55;18.00;93.20
62991;DHT22;49084;48.204;16.202;2022-08-11T20:05:40;17.90;94.20
62991;DHT22;49084;48.204;16.202;2022-08-11T20:08:26;17.80;95.60